createdAt,value
2018-09-05T00:01:52.180Z,24.25
2018-09-05T00:04:22.001Z,23.00
2018-09-05T00:06:51.698Z,23.87
2018-09-05T00:09:21.763Z,23.10
2018-09-05T00:11:51.401Z,22.93
2018-09-05T00:14:21.197Z,22.57
2018-09-05T00:16:50.958Z,23.18
2018-09-05T00:19:20.684Z,25.57
2018-09-05T00:21:50.434Z,25.40
2018-09-05T00:24:20.062Z,22.87
2018-09-05T00:26:49.727Z,20.73
2018-09-05T00:29:19.389Z,21.60
2018-09-05T00:31:49.151Z,24.05
2018-09-05T00:34:18.775Z,22.10
2018-09-05T00:36:48.568Z,22.23
2018-09-05T00:39:18.306Z,22.40
2018-09-05T00:41:48.193Z,25.20
2018-09-05T00:44:17.864Z,22.63
2018-09-05T00:46:47.736Z,23.12
2018-09-05T00:49:17.461Z,22.83
2018-09-05T00:51:47.340Z,22.30
2018-09-05T00:54:17.094Z,25.70
2018-09-05T00:56:46.963Z,23.40
2018-09-05T00:59:16.693Z,24.98
2018-09-05T01:01:46.623Z,25.50
2018-09-05T01:04:16.274Z,23.90
2018-09-05T01:06:45.833Z,22.83
2018-09-05T01:09:15.590Z,21.97
2018-09-05T01:11:45.391Z,21.83
2018-09-05T01:14:15.157Z,20.90
2018-09-05T01:16:45.034Z,20.87
2018-09-05T01:19:14.643Z,25.10
2018-09-05T01:21:44.337Z,22.17
2018-09-05T01:24:13.919Z,21.33
2018-09-05T01:26:43.721Z,25.70
2018-09-05T01:29:13.457Z,22.90
2018-09-05T01:31:43.420Z,22.27
2018-09-05T01:34:13.301Z,22.90
2018-09-05T01:36:43.030Z,22.13
2018-09-05T01:39:12.787Z,21.40
2018-09-05T01:41:42.519Z,25.08
2018-09-05T01:44:12.186Z,25.12
2018-09-05T01:46:41.781Z,23.70
2018-09-05T01:49:11.578Z,24.72
2018-09-05T01:51:41.578Z,21.57
2018-09-05T01:54:11.263Z,21.33
2018-09-05T01:56:40.981Z,20.83
2018-09-05T01:59:10.595Z,21.53
2018-09-05T02:01:40.222Z,21.00
2018-09-05T02:04:10.018Z,22.40
2018-09-05T02:06:39.869Z,22.27
2018-09-05T02:09:12.184Z,24.95
2018-09-05T02:11:41.976Z,26.23
2018-09-05T02:14:12.593Z,26.05
2018-09-05T02:16:43.062Z,24.63
2018-09-05T02:19:12.727Z,23.87
2018-09-05T02:21:42.402Z,20.77
2018-09-05T02:24:12.410Z,22.80
2018-09-05T02:26:42.106Z,19.83
2018-09-05T02:29:11.543Z,19.43
2018-09-05T02:31:41.042Z,22.70
2018-09-05T02:34:10.797Z,22.42
2018-09-05T02:36:40.566Z,21.68
2018-09-05T02:39:11.607Z,23.25
2018-09-05T02:41:41.388Z,24.00
2018-09-05T02:44:16.263Z,20.30
2018-09-05T02:46:46.409Z,19.70
2018-09-05T02:49:16.207Z,19.97
2018-09-05T02:51:46.093Z,20.20
2018-09-05T02:54:15.844Z,22.50
2018-09-05T02:56:45.551Z,20.43
2018-09-05T02:59:15.435Z,20.47
2018-09-05T03:01:44.973Z,20.20
2018-09-05T03:04:14.634Z,23.20
2018-09-05T03:06:44.458Z,20.03
2018-09-05T03:09:14.044Z,20.80
2018-09-05T03:11:43.752Z,19.67
2018-09-05T03:14:13.485Z,19.53
2018-09-05T03:16:43.226Z,21.20
2018-09-05T03:19:13.029Z,22.17
2018-09-05T03:21:42.660Z,21.05
2018-09-05T03:24:12.279Z,23.43
2018-09-05T03:26:42.016Z,23.30
2018-09-05T03:29:11.952Z,18.33
2018-09-05T03:31:41.901Z,19.83
2018-09-05T03:34:11.665Z,22.00
2018-09-05T03:36:41.695Z,24.40
2018-09-05T03:39:12.266Z,23.90
2018-09-05T03:41:42.045Z,25.45
2018-09-05T03:44:11.715Z,21.80
2018-09-05T03:46:41.233Z,23.73
2018-09-05T03:49:10.952Z,24.70
2018-09-05T03:51:41.097Z,23.52
2018-09-05T03:54:11.052Z,23.67
2018-09-05T03:56:40.818Z,22.43
2018-09-05T03:59:10.381Z,24.30
2018-09-05T04:01:39.961Z,27.73
2018-09-05T04:04:09.825Z,31.00
2018-09-05T04:53:46.331Z,41.57
2018-09-05T04:56:16.232Z,38.03
2018-09-05T04:58:46.091Z,39.17
2018-09-05T05:01:15.696Z,45.93
2018-09-05T05:03:45.667Z,45.43
2018-09-05T05:06:15.342Z,46.60
2018-09-05T05:08:45.302Z,42.13
2018-09-05T05:11:14.986Z,37.47
2018-09-05T05:13:44.668Z,36.73
2018-09-05T05:16:14.343Z,41.48
2018-09-05T05:18:43.933Z,39.30
2018-09-05T05:21:13.793Z,40.25
2018-09-05T05:23:43.613Z,35.63
2018-09-05T05:26:13.242Z,32.33
2018-09-05T05:28:42.997Z,28.23
2018-09-05T05:31:12.506Z,33.13
2018-09-05T05:33:42.119Z,33.55
2018-09-05T05:36:11.885Z,32.93
2018-09-05T05:38:41.565Z,42.83
2018-09-05T05:41:11.289Z,49.85
2018-09-05T05:43:41.022Z,50.73
2018-09-05T05:46:11.211Z,65.07
2018-09-05T05:48:40.848Z,68.93
2018-09-05T05:51:10.480Z,72.17
2018-09-05T05:53:40.151Z,76.03
2018-09-05T05:56:10.121Z,89.00
2018-09-05T05:58:39.892Z,90.83
2018-09-05T06:01:09.618Z,108.47
2018-09-05T06:03:42.590Z,100.63
2018-09-05T06:06:12.440Z,81.23
2018-09-05T06:08:41.999Z,75.00
2018-09-05T06:11:11.676Z,71.90
2018-09-05T06:13:41.355Z,70.30
2018-09-05T06:16:11.059Z,64.03
2018-09-05T06:18:41.465Z,65.03
2018-09-05T06:21:11.277Z,60.67
2018-09-05T06:23:40.941Z,53.67
2018-09-05T06:26:10.394Z,47.60
2018-09-05T06:28:40.077Z,41.10
2018-09-05T06:31:09.829Z,34.17
2018-09-05T06:33:39.718Z,39.33
2018-09-05T06:36:09.375Z,41.30
2018-09-05T06:38:39.016Z,40.20
2018-09-05T06:41:14.730Z,36.47
2018-09-05T06:43:44.305Z,32.97
2018-09-05T06:46:14.005Z,38.83
2018-09-05T06:48:43.595Z,43.00
2018-09-05T06:51:13.296Z,39.83
2018-09-05T06:53:42.948Z,38.83
2018-09-05T06:56:12.623Z,32.63
2018-09-05T06:58:42.804Z,33.98
2018-09-05T07:01:12.429Z,33.07
2018-09-05T07:03:42.287Z,33.00
2018-09-05T07:06:12.049Z,29.85
2018-09-05T07:08:41.679Z,31.97
2018-09-05T07:11:17.974Z,28.97
2018-09-05T07:13:47.890Z,25.33
2018-09-05T07:16:17.819Z,27.95
2018-09-05T07:18:47.708Z,27.57
2018-09-05T07:21:17.573Z,25.60
2018-09-05T07:23:47.337Z,25.50
2018-09-05T07:26:16.951Z,23.90
2018-09-05T07:28:46.910Z,22.80
2018-09-05T07:31:16.817Z,22.77
2018-09-05T07:33:46.753Z,23.10
2018-09-05T07:36:16.353Z,25.83
2018-09-05T07:38:46.323Z,25.88
2018-09-05T07:41:16.093Z,27.60
2018-09-05T07:43:45.719Z,26.40
2018-09-05T07:46:15.394Z,27.13
2018-09-05T07:48:45.062Z,27.23
2018-09-05T07:51:14.891Z,26.83
2018-09-05T07:53:44.587Z,28.63
2018-09-05T07:56:14.207Z,26.20
2018-09-05T07:58:43.858Z,26.13
2018-09-05T08:01:14.474Z,23.27
2018-09-05T08:03:44.413Z,23.57
2018-09-05T08:06:14.451Z,23.50
2018-09-05T08:08:44.064Z,22.73
2018-09-05T08:11:13.844Z,20.87
2018-09-05T08:13:43.500Z,23.45
2018-09-05T08:16:13.340Z,21.93
2018-09-05T08:18:43.055Z,20.97
2018-09-05T08:21:12.676Z,22.98
2018-09-05T08:23:42.368Z,22.70
2018-09-05T08:26:12.047Z,23.37
2018-09-05T08:28:41.675Z,21.47
2018-09-05T08:31:11.181Z,22.10
2018-09-05T08:33:40.751Z,21.43
2018-09-05T08:36:10.660Z,22.37
2018-09-05T08:38:40.134Z,21.83
2018-09-05T08:41:11.268Z,25.27
2018-09-05T08:43:41.900Z,23.77
2018-09-05T08:46:11.710Z,23.23
2018-09-05T08:48:41.376Z,25.85
2018-09-05T08:51:10.987Z,23.60
2018-09-05T08:53:40.488Z,24.10
2018-09-05T08:56:10.197Z,22.30
2018-09-05T08:58:40.044Z,21.93
2018-09-05T09:01:09.794Z,20.67
2018-09-05T09:03:39.544Z,21.13
2018-09-05T09:06:09.383Z,21.40
2018-09-05T09:08:39.073Z,23.07
2018-09-05T09:11:09.068Z,21.47
2018-09-05T09:13:38.906Z,21.25
2018-09-05T09:16:09.015Z,20.57
2018-09-05T09:18:38.861Z,20.90
2018-09-05T09:21:08.525Z,21.42
2018-09-05T09:23:38.135Z,19.00
2018-09-05T09:26:08.523Z,20.20
2018-09-05T09:28:38.281Z,18.13
2018-09-05T09:31:08.534Z,18.43
2018-09-05T09:33:38.266Z,17.03
2018-09-05T09:36:08.018Z,16.97
2018-09-05T09:38:37.670Z,15.68
2018-09-05T09:41:07.337Z,15.70
2018-09-05T09:43:36.965Z,15.53
2018-09-05T09:46:06.547Z,14.80
2018-09-05T09:48:36.260Z,16.93
2018-09-05T09:51:06.140Z,16.37
2018-09-05T09:53:36.000Z,14.87
2018-09-05T09:56:05.860Z,14.70
2018-09-05T09:58:35.563Z,14.90
2018-09-05T10:01:10.244Z,14.50
2018-09-05T10:03:44.946Z,14.63
2018-09-05T10:06:19.992Z,14.40
2018-09-05T10:08:54.695Z,14.18
2018-09-05T10:11:29.477Z,12.47
2018-09-05T10:14:04.258Z,12.10
2018-09-05T10:16:39.221Z,11.57
2018-09-05T10:19:10.231Z,11.07
2018-09-05T10:21:40.040Z,11.63
2018-09-05T10:24:09.715Z,11.37
2018-09-05T10:26:39.436Z,9.87
2018-09-05T10:29:09.158Z,9.33
2018-09-05T10:31:39.133Z,9.77
2018-09-05T10:34:09.051Z,9.17
2018-09-05T10:36:38.702Z,9.73
2018-09-05T10:39:10.548Z,8.30
2018-09-05T10:41:40.648Z,9.03
2018-09-05T10:44:10.608Z,6.80
2018-09-05T10:46:40.367Z,7.00
2018-09-05T10:49:10.064Z,8.00
2018-09-05T10:51:44.953Z,6.95
2018-09-05T10:54:14.610Z,6.90
2018-09-05T10:56:44.575Z,6.53
2018-09-05T10:59:14.621Z,6.80
2018-09-05T11:01:44.304Z,6.67
2018-09-05T11:04:14.041Z,6.67
2018-09-05T11:06:43.921Z,6.40
2018-09-05T11:09:13.646Z,7.97
2018-09-05T11:11:43.352Z,6.83
2018-09-05T11:14:12.893Z,7.60
2018-09-05T11:16:42.764Z,8.90
2018-09-05T11:19:12.451Z,8.07
2018-09-05T11:21:42.025Z,7.40
2018-09-05T11:24:11.823Z,7.70
2018-09-05T11:26:41.482Z,7.47
2018-09-05T11:29:11.229Z,7.70
2018-09-05T11:31:41.004Z,7.30
2018-09-05T11:34:11.451Z,7.17
2018-09-05T11:36:41.149Z,7.10
2018-09-05T11:39:13.896Z,9.03
2018-09-05T11:41:43.599Z,8.13
2018-09-05T11:44:13.292Z,8.00
2018-09-05T11:46:43.077Z,8.07
2018-09-05T11:49:12.760Z,8.20
2018-09-05T11:51:42.286Z,7.27
2018-09-05T11:54:11.888Z,13.53
2018-09-05T11:56:41.536Z,8.40
2018-09-05T11:59:11.273Z,7.90
2018-09-05T12:01:41.121Z,7.63
2018-09-05T12:04:10.909Z,7.70
2018-09-05T12:06:40.762Z,6.80
2018-09-05T12:09:12.071Z,7.33
2018-09-05T12:11:41.772Z,8.23
2018-09-05T12:14:11.656Z,7.37
2018-09-05T12:16:41.452Z,7.10
2018-09-05T12:19:11.211Z,8.13
2018-09-05T12:21:40.887Z,7.70
2018-09-05T12:24:10.838Z,7.13
2018-09-05T12:26:40.517Z,7.57
2018-09-05T12:29:12.321Z,6.73
2018-09-05T12:31:42.904Z,7.10
2018-09-05T12:34:13.492Z,7.07
2018-09-05T12:36:43.102Z,7.33
2018-09-05T12:39:14.913Z,6.83
2018-09-05T12:41:44.667Z,7.07
2018-09-05T12:44:14.497Z,7.20
2018-09-05T12:46:44.137Z,6.90
2018-09-05T12:49:13.723Z,6.60
2018-09-05T12:51:43.358Z,7.30
2018-09-05T12:54:13.475Z,6.73
2018-09-05T12:56:43.544Z,7.20
2018-09-05T12:59:13.288Z,6.60
2018-09-05T13:01:43.030Z,6.70
2018-09-05T13:04:12.658Z,6.47
2018-09-05T13:06:42.347Z,7.00
2018-09-05T13:09:13.880Z,6.73
2018-09-05T13:11:44.162Z,7.23
2018-09-05T13:14:13.988Z,7.17
2018-09-05T13:16:43.675Z,6.70
2018-09-05T13:19:16.207Z,7.00
2018-09-05T13:21:45.925Z,6.73
2018-09-05T13:24:15.607Z,6.20
2018-09-05T13:26:45.303Z,6.50
2018-09-05T13:29:15.026Z,6.70
2018-09-05T13:31:44.714Z,6.57
2018-09-05T13:34:14.223Z,6.80
2018-09-05T13:36:43.887Z,6.73
2018-09-05T13:39:13.527Z,7.30
2018-09-05T13:41:43.200Z,6.90
2018-09-05T13:44:12.992Z,6.03
2018-09-05T13:46:42.689Z,6.30
2018-09-05T13:49:12.357Z,6.47
2018-09-05T13:51:42.209Z,6.47
2018-09-05T13:54:11.967Z,6.50
2018-09-05T13:56:41.551Z,6.47
2018-09-05T13:59:11.258Z,6.83
2018-09-05T14:01:40.942Z,7.53
2018-09-05T14:04:10.498Z,6.77
2018-09-05T14:06:40.177Z,7.70
2018-09-05T14:09:12.045Z,7.40
2018-09-05T14:11:42.010Z,7.30
2018-09-05T14:14:11.511Z,6.87
2018-09-05T14:16:41.191Z,6.60
2018-09-05T14:19:10.996Z,7.63
2018-09-05T14:21:40.762Z,7.70
2018-09-05T14:24:10.658Z,6.50
2018-09-05T14:26:40.444Z,6.23
2018-09-05T14:29:10.137Z,6.93
2018-09-05T14:31:39.924Z,7.03
2018-09-05T14:34:09.591Z,6.90
2018-09-05T14:36:39.405Z,8.03
2018-09-05T14:39:11.687Z,6.93
2018-09-05T14:41:41.641Z,6.30
2018-09-05T14:44:11.300Z,6.80
2018-09-05T14:46:41.023Z,6.73
2018-09-05T14:49:10.739Z,6.80
2018-09-05T14:51:40.488Z,7.00
2018-09-05T14:54:10.162Z,7.13
2018-09-05T14:56:39.906Z,7.37
2018-09-05T14:59:09.730Z,8.00
2018-09-05T15:01:39.358Z,7.90
2018-09-05T15:04:09.191Z,7.20
2018-09-05T15:06:38.966Z,8.10
2018-09-05T15:09:11.590Z,7.50
2018-09-05T15:11:41.097Z,7.70
2018-09-05T15:14:17.366Z,7.23
2018-09-05T15:16:47.112Z,7.03
2018-09-05T15:19:16.831Z,7.27
2018-09-05T15:21:46.611Z,8.20
2018-09-05T15:24:16.179Z,7.20
2018-09-05T15:26:45.655Z,7.37
2018-09-05T15:29:15.268Z,7.30
2018-09-05T15:31:44.913Z,7.57
2018-09-05T15:34:14.725Z,6.70
2018-09-05T15:36:44.428Z,6.97
2018-09-05T15:39:14.340Z,8.00
2018-09-05T15:41:44.375Z,7.83
2018-09-05T15:44:14.125Z,8.43
2018-09-05T15:46:44.020Z,7.07
2018-09-05T15:49:13.855Z,6.90
2018-09-05T15:51:43.404Z,6.77
2018-09-05T15:54:13.110Z,7.17
2018-09-05T15:56:42.894Z,7.43
2018-09-05T15:59:12.474Z,7.13
2018-09-05T16:01:42.227Z,7.93
2018-09-05T16:04:11.998Z,7.50
2018-09-05T16:06:41.591Z,8.40
2018-09-05T16:09:12.067Z,9.57
2018-09-05T16:11:41.660Z,8.40
2018-09-05T16:14:11.239Z,7.57
2018-09-05T16:16:40.804Z,9.08
2018-09-05T16:19:10.418Z,7.37
2018-09-05T16:21:40.113Z,7.40
2018-09-05T16:24:09.829Z,7.13
2018-09-05T16:26:39.414Z,7.27
2018-09-05T16:29:09.112Z,7.77
2018-09-05T16:31:39.001Z,8.03
2018-09-05T16:34:09.612Z,9.97
2018-09-05T16:36:39.353Z,12.73
2018-09-05T16:39:11.816Z,8.07
2018-09-05T16:41:42.014Z,7.83
2018-09-05T16:44:12.118Z,8.13
2018-09-05T16:46:41.770Z,11.47
2018-09-05T16:49:11.491Z,9.67
2018-09-05T16:51:41.219Z,8.80
2018-09-05T16:54:11.090Z,7.80
2018-09-05T16:56:40.728Z,8.30
2018-09-05T16:59:10.634Z,7.33
2018-09-05T17:01:40.380Z,7.83
2018-09-05T17:04:10.058Z,9.87
2018-09-05T17:06:39.790Z,9.13
2018-09-05T17:09:12.417Z,8.40
2018-09-05T17:11:42.330Z,6.67
2018-09-05T17:14:11.996Z,6.90
2018-09-05T17:16:41.668Z,6.63
2018-09-05T17:19:11.382Z,6.27
2018-09-05T17:21:40.995Z,6.17
2018-09-05T17:24:10.605Z,5.60
2018-09-05T17:26:40.208Z,6.33
2018-09-05T17:29:09.867Z,5.60
2018-09-05T17:31:39.732Z,5.77
2018-09-05T17:34:09.687Z,6.37
2018-09-05T17:36:39.370Z,6.23
2018-09-05T17:39:10.818Z,5.53
2018-09-05T17:41:40.955Z,6.10
2018-09-05T17:44:11.403Z,6.37
2018-09-05T17:46:41.050Z,7.87
2018-09-05T17:49:10.941Z,7.73
2018-09-05T17:51:40.622Z,10.37
2018-09-05T17:54:10.261Z,8.87
2018-09-05T17:56:40.049Z,9.90
2018-09-05T17:59:09.692Z,29.23
2018-09-05T18:01:39.601Z,39.17
2018-09-05T18:04:09.522Z,24.37
2018-09-05T18:06:39.477Z,23.87
2018-09-05T18:09:10.791Z,29.67
2018-09-05T18:11:40.529Z,14.30
2018-09-05T18:14:10.216Z,17.37
2018-09-05T18:16:40.093Z,14.83
2018-09-05T18:19:09.792Z,14.03
2018-09-05T18:21:39.543Z,12.63
2018-09-05T18:24:09.471Z,22.37
2018-09-05T18:26:39.080Z,15.40
2018-09-05T18:29:09.090Z,13.90
2018-09-05T18:31:39.122Z,11.70
2018-09-05T18:34:08.962Z,13.55
2018-09-05T18:36:38.931Z,12.70
2018-09-05T18:39:09.603Z,13.13
2018-09-05T18:41:39.575Z,10.83
2018-09-05T18:44:09.447Z,11.53
2018-09-05T18:46:39.139Z,12.93
2018-09-05T18:49:08.994Z,12.67
2018-09-05T18:51:39.035Z,11.77
2018-09-05T18:54:09.119Z,15.60
2018-09-05T18:56:38.844Z,16.80
2018-09-05T18:59:08.760Z,25.23
2018-09-05T19:01:38.381Z,22.27
2018-09-05T19:04:08.148Z,19.90
2018-09-05T19:06:37.822Z,17.30
2018-09-05T19:09:10.566Z,17.73
2018-09-05T19:11:40.460Z,17.27
2018-09-05T19:14:11.476Z,17.07
2018-09-05T19:16:41.050Z,16.63
2018-09-05T19:19:10.887Z,16.17
2018-09-05T19:21:40.691Z,20.15
2018-09-05T19:24:10.241Z,19.32
2018-09-05T19:26:39.897Z,16.83
2018-09-05T19:29:09.713Z,14.77
2018-09-05T19:31:39.753Z,14.50
2018-09-05T19:34:10.032Z,14.10
2018-09-05T19:36:39.714Z,13.27
2018-09-05T19:39:10.971Z,13.73
2018-09-05T19:41:41.051Z,13.10
2018-09-05T19:44:10.863Z,13.83
2018-09-05T19:46:40.577Z,14.27
2018-09-05T19:49:10.224Z,14.63
2018-09-05T19:51:39.876Z,14.43
2018-09-05T19:54:09.463Z,14.03
2018-09-05T19:56:39.287Z,14.10
2018-09-05T19:59:09.012Z,15.43
2018-09-05T20:01:38.752Z,14.03
2018-09-05T20:04:08.612Z,20.23
2018-09-05T20:06:38.435Z,27.37
2018-09-05T20:09:09.250Z,33.18
2018-09-05T20:11:38.830Z,26.23
2018-09-05T20:14:08.469Z,25.03
2018-09-05T20:16:38.135Z,25.30
2018-09-05T20:19:07.931Z,25.47
2018-09-05T20:21:37.600Z,23.13
2018-09-05T20:24:07.317Z,20.97
2018-09-05T20:26:37.051Z,22.73
2018-09-05T20:29:06.849Z,22.20
2018-09-05T20:31:36.458Z,20.97
2018-09-05T20:34:06.231Z,24.17
2018-09-05T20:36:36.004Z,25.03
2018-09-05T20:39:08.693Z,24.97
2018-09-05T20:41:38.458Z,25.43
2018-09-05T20:44:08.695Z,25.53
2018-09-05T20:46:38.781Z,25.27
2018-09-05T20:49:08.517Z,28.73
2018-09-05T20:51:38.261Z,24.83
2018-09-05T20:54:08.129Z,25.07
2018-09-05T20:56:37.987Z,28.62
2018-09-05T20:59:08.073Z,25.57
2018-09-05T21:01:37.699Z,23.53
2018-09-05T21:04:07.650Z,23.87
2018-09-05T21:06:37.539Z,25.00
2018-09-05T21:09:08.646Z,26.93
2018-09-05T21:11:38.543Z,30.30
2018-09-05T21:14:08.305Z,34.53
2018-09-05T21:16:37.930Z,35.70
2018-09-05T21:19:07.578Z,35.83
2018-09-05T21:21:37.306Z,35.53
2018-09-05T21:24:07.029Z,30.13
2018-09-05T21:26:37.165Z,30.43
2018-09-05T21:29:06.941Z,29.43
2018-09-05T21:31:36.645Z,28.97
2018-09-05T21:34:06.320Z,30.00
2018-09-05T21:36:37.078Z,28.27
2018-09-05T21:39:14.615Z,26.80
2018-09-05T21:41:45.994Z,29.25
2018-09-05T21:44:17.494Z,23.67
2018-09-05T21:46:47.753Z,21.00
2018-09-05T21:49:17.756Z,20.47
2018-09-05T21:51:47.995Z,18.50
2018-09-05T21:54:18.887Z,18.20
2018-09-05T21:56:49.481Z,19.07
2018-09-05T21:59:19.625Z,22.25
2018-09-05T22:01:49.265Z,19.53
2018-09-05T22:04:19.087Z,21.85
2018-09-05T22:06:49.237Z,18.87
2018-09-05T22:09:18.839Z,19.73
2018-09-05T22:11:48.434Z,24.90
2018-09-05T22:14:18.167Z,24.93
2018-09-05T22:16:47.841Z,28.20
2018-09-05T22:19:17.644Z,36.30
2018-09-05T22:21:47.380Z,46.90
2018-09-05T22:24:17.100Z,42.50
2018-09-05T22:26:46.900Z,27.20
2018-09-05T22:29:16.591Z,31.82
2018-09-05T22:31:46.396Z,24.37
2018-09-05T22:34:16.027Z,28.90
2018-09-05T22:36:45.790Z,36.77
2018-09-05T22:39:15.384Z,38.77
2018-09-05T22:41:45.267Z,47.57
2018-09-05T22:44:25.655Z,56.05
2018-09-05T22:47:05.921Z,58.40
2018-09-05T22:51:06.033Z,54.83
2018-09-05T22:53:55.247Z,83.42
2018-09-05T22:57:40.604Z,82.53
2018-09-05T23:02:27.689Z,67.67
2018-09-05T23:05:11.547Z,85.20
2018-09-05T23:07:59.948Z,83.45
2018-09-05T23:10:40.543Z,66.27
2018-09-05T23:13:20.904Z,65.73
2018-09-05T23:16:01.234Z,46.88
2018-09-05T23:18:41.699Z,32.27
2018-09-05T23:21:18.325Z,26.70
2018-09-05T23:23:57.050Z,26.70
2018-09-05T23:26:27.301Z,24.70
2018-09-05T23:28:56.961Z,25.13
2018-09-05T23:31:26.949Z,25.03
2018-09-05T23:33:56.866Z,24.03
2018-09-05T23:36:26.929Z,23.20
2018-09-05T23:38:56.682Z,27.70
2018-09-05T23:41:26.472Z,25.53
2018-09-05T23:43:56.112Z,28.23
2018-09-05T23:46:25.798Z,37.20
2018-09-05T23:48:55.451Z,37.00
2018-09-05T23:51:25.302Z,42.03
2018-09-05T23:53:55.013Z,39.60
2018-09-05T23:56:24.669Z,39.00
2018-09-05T23:58:54.623Z,38.80
